This is the latest recevied weather packets stored in our database for station/object IZ1UQG-N2. If no packets are shown the sender has not sent any weather packets the latest 10 day(s).
| Time | Temp. | Humidity | Pressure | Rain* | Wind** | Luminosity | Snow |
|---|---|---|---|---|---|---|---|
| 1777010766 | 12.22° C | 60% | 1017.4 hPa | 0 mm | - | 206 W/m² | - |
| 1777010719 | 11.67° C | 60% | 1017.4 hPa | 0 mm | - | 200 W/m² | - |
| 1777010659 | 11.67° C | 61% | 1017.4 hPa | 0 mm | - | 197 W/m² | - |
| 1777010599 | 11.67° C | 64% | 1017.6 hPa | 0 mm | - | 185 W/m² | - |
| 1777010586 | 11.67° C | 64% | 1017.6 hPa | 0 mm | - | 185 W/m² | - |
| 1777010540 | 11.67° C | 64% | 1017.6 hPa | 0 mm | - | 185 W/m² | - |
| 1777010478 | 11.67° C | 64% | 1017.6 hPa | 0 mm | - | 185 W/m² | - |
| 1777007572 | 11.67° C | 68% | 1017.4 hPa | 0 mm | - | 42 W/m² | - |
| 1777007524 | 11.67° C | 68% | 1017.4 hPa | 0 mm | - | 39 W/m² | - |
| 1777007512 | 11.67° C | 68% | 1017.4 hPa | 0 mm | - | 39 W/m² | - |
| 1777007452 | 11.67° C | 68% | 1017.4 hPa | 0 mm | - | 37 W/m² | - |
| 1777007392 | 11.67° C | 69% | 1017.4 hPa | 0 mm | - | 35 W/m² | - |
| 1777007343 | 11.67° C | 69% | 1017.4 hPa | 0 mm | - | 35 W/m² | - |
| 1777007331 | 11.11° C | 70% | 1017.4 hPa | 0 mm | - | 33 W/m² | - |
| 1777007272 | 11.11° C | 70% | 1017.4 hPa | 0 mm | - | 32 W/m² | - |
| 1777007212 | 11.11° C | 70% | 1017.3 hPa | 0 mm | - | 32 W/m² | - |
| 1777007164 | 11.11° C | 70% | 1017.3 hPa | 0 mm | - | 32 W/m² | - |
| 1777007152 | 11.11° C | 70% | 1017.4 hPa | 0 mm | - | 28 W/m² | - |
| 1777007091 | 11.11° C | 70% | 1017.3 hPa | 0 mm | - | 26 W/m² | - |
| 1777007031 | 11.11° C | 70% | 1017.3 hPa | 0 mm | - | 25 W/m² | - |
| 1777006984 | 11.11° C | 70% | 1017.3 hPa | 0 mm | - | 25 W/m² | - |
| 1777006972 | 11.11° C | 70% | 1017.3 hPa | 0 mm | - | 25 W/m² | - |
| 1777006912 | 11.11° C | 70% | 1017.3 hPa | 0 mm | - | 23 W/m² | - |
| 1777006852 | 11.11° C | 70% | 1017.2 hPa | 0 mm | - | 21 W/m² | - |
| 1777006804 | 11.11° C | 70% | 1017.2 hPa | 0 mm | - | 21 W/m² | - |
* Rain latest hour (hover to see other rain measurements)
** Current wind speed in m/s (hover to see current wind gust speed)